createdAt,value
2022-11-24T00:01:12.883Z,100177.31
2022-11-24T00:03:40.643Z,100175.19
2022-11-24T00:06:10.830Z,100168.56
2022-11-24T00:08:39.691Z,100165.66
2022-11-24T00:11:09.471Z,100161.66
2022-11-24T00:13:39.093Z,100182.47
2022-11-24T00:16:13.047Z,100196.16
2022-11-24T00:18:41.950Z,100209.31
2022-11-24T00:21:10.176Z,100213.53
2022-11-24T00:23:38.764Z,100206.69
2022-11-24T00:26:08.672Z,100210.94
2022-11-24T00:28:37.427Z,100202.78
2022-11-24T00:31:06.951Z,100199.63
2022-11-24T00:33:36.024Z,100200.97
2022-11-24T00:36:03.705Z,100201.53
2022-11-24T00:38:31.388Z,100212.06
2022-11-24T00:40:59.063Z,100214.72
2022-11-24T00:43:26.798Z,100204.16
2022-11-24T00:45:54.624Z,100207.59
2022-11-24T00:48:22.847Z,100203.13
2022-11-24T00:50:58.605Z,100203.13
2022-11-24T00:53:26.699Z,100218.69
2022-11-24T00:55:55.158Z,100218.69
2022-11-24T00:58:23.332Z,100214.78
2022-11-24T01:00:50.879Z,100223.75
2022-11-24T01:03:20.103Z,100220.63
2022-11-24T01:05:47.838Z,100227.25
2022-11-24T01:08:17.189Z,100237.53
2022-11-24T01:10:44.839Z,100227.03
2022-11-24T01:13:13.338Z,100236.03
2022-11-24T01:15:41.210Z,100231.81
2022-11-24T01:18:08.899Z,100234.25
2022-11-24T01:20:38.188Z,100237.13
2022-11-24T01:23:05.881Z,100242.69
2022-11-24T01:25:34.972Z,100243.47
2022-11-24T01:28:02.701Z,100244.53
2022-11-24T01:30:30.455Z,100251.94
2022-11-24T01:32:58.141Z,100252.97
2022-11-24T01:35:25.732Z,100244.59
2022-11-24T01:37:53.377Z,100248.00
2022-11-24T01:40:23.159Z,100249.06
2022-11-24T01:42:54.051Z,100246.72
2022-11-24T01:45:41.610Z,100253.06
2022-11-24T01:48:16.948Z,100249.63
2022-11-24T01:50:45.179Z,100247.25
2022-11-24T01:53:14.152Z,100255.94
2022-11-24T01:55:42.556Z,100260.97
2022-11-24T01:58:15.391Z,100258.81
2022-11-24T02:00:45.812Z,100267.22
2022-11-24T02:03:17.059Z,100266.69
2022-11-24T02:05:50.201Z,100266.59
2022-11-24T02:08:22.843Z,100264.22
2022-11-24T02:10:50.648Z,100261.78
2022-11-24T02:13:20.456Z,100268.09
2022-11-24T02:15:48.515Z,100269.09
2022-11-24T02:18:16.261Z,100269.84
2022-11-24T02:20:44.155Z,100280.59
2022-11-24T02:23:21.153Z,100278.97
2022-11-24T02:25:57.504Z,100278.91
2022-11-24T02:28:30.053Z,100283.06
2022-11-24T02:30:58.988Z,100282.22
2022-11-24T02:33:27.394Z,100278.25
2022-11-24T02:35:55.613Z,100289.56
2022-11-24T02:38:31.147Z,100285.06
2022-11-24T02:41:01.740Z,100286.84
2022-11-24T02:43:33.423Z,100291.34
2022-11-24T02:46:01.062Z,100295.56
2022-11-24T02:48:28.796Z,100296.34
2022-11-24T02:50:56.512Z,100302.13
2022-11-24T02:53:24.212Z,100303.97
2022-11-24T02:55:52.101Z,100292.63
2022-11-24T02:58:19.742Z,100302.41
2022-11-24T03:00:49.269Z,100301.34
2022-11-24T03:03:16.996Z,100312.13
2022-11-24T03:05:44.703Z,100312.13
2022-11-24T03:08:13.014Z,100308.41
2022-11-24T03:10:40.938Z,100301.28
2022-11-24T03:13:08.951Z,100290.72
2022-11-24T03:15:37.125Z,100292.31
2022-11-24T03:18:06.335Z,100296.25
2022-11-24T03:20:34.181Z,100296.50
2022-11-24T03:23:01.886Z,100299.94
2022-11-24T03:25:29.592Z,100298.88
2022-11-24T03:27:58.248Z,100299.63
2022-11-24T03:30:26.270Z,100303.56
2022-11-24T03:32:54.517Z,100300.94
2022-11-24T03:35:23.638Z,100312.75
2022-11-24T03:37:51.382Z,100307.72
2022-11-24T03:40:19.067Z,100316.19
2022-11-24T03:42:46.739Z,100317.25
2022-11-24T03:45:46.142Z,100312.75
2022-11-24T03:48:02.539Z,100315.69
2022-11-24T03:50:31.570Z,100312.25
2022-11-24T03:52:59.302Z,100323.38
2022-11-24T03:55:26.971Z,100321.75
2022-11-24T03:57:54.661Z,100324.41
2022-11-24T04:00:22.601Z,100326.25
2022-11-24T04:02:50.321Z,100328.88
2022-11-24T04:05:18.211Z,100327.59
2022-11-24T04:07:47.375Z,100333.38
2022-11-24T04:10:15.183Z,100341.28
2022-11-24T04:12:44.589Z,100335.44
2022-11-24T04:15:13.396Z,100349.13
2022-11-24T04:17:41.291Z,100343.34
2022-11-24T04:20:10.836Z,100352.81
2022-11-24T04:22:38.692Z,100342.28
2022-11-24T04:25:09.682Z,100349.69
2022-11-24T04:27:38.375Z,100360.22
2022-11-24T04:30:07.893Z,100356.03
2022-11-24T04:32:35.615Z,100360.78
2022-11-24T04:35:03.323Z,100363.72
2022-11-24T04:37:30.960Z,100364.00
2022-11-24T04:39:58.616Z,100379.31
2022-11-24T04:42:27.672Z,100374.81
2022-11-24T04:44:55.608Z,100378.25
2022-11-24T04:47:25.015Z,100393.56
2022-11-24T04:49:53.706Z,100393.28
2022-11-24T04:52:23.829Z,100390.63
2022-11-24T04:54:51.848Z,100400.41
2022-11-24T04:57:23.685Z,100404.09
2022-11-24T04:59:53.632Z,100410.44
2022-11-24T05:02:22.099Z,100424.41
2022-11-24T05:04:50.465Z,100422.28
2022-11-24T05:07:19.618Z,100421.78
2022-11-24T05:10:05.481Z,100431.81
2022-11-24T05:12:33.573Z,100444.78
2022-11-24T05:15:04.032Z,100444.78
2022-11-24T05:17:32.722Z,100433.72
2022-11-24T05:20:00.592Z,100444.81
2022-11-24T05:22:30.219Z,100444.88
2022-11-24T05:24:57.939Z,100459.38
2022-11-24T05:27:25.975Z,100458.09
2022-11-24T05:29:53.671Z,100461.28
2022-11-24T05:32:22.797Z,100466.81
2022-11-24T05:34:50.541Z,100464.72
2022-11-24T05:37:18.445Z,100476.63
2022-11-24T05:39:46.144Z,100486.38
2022-11-24T05:42:31.583Z,100477.19
2022-11-24T05:44:59.639Z,100483.00
2022-11-24T05:47:28.675Z,100485.66
2022-11-24T05:49:56.440Z,100488.84
2022-11-24T05:52:24.114Z,100495.97
2022-11-24T05:54:51.839Z,100500.72
2022-11-24T05:57:19.657Z,100511.53
2022-11-24T05:59:47.376Z,100514.72
2022-11-24T06:02:15.177Z,100526.31
2022-11-24T06:04:44.309Z,100522.09
2022-11-24T06:07:13.187Z,100535.56
2022-11-24T06:09:42.859Z,100534.75
2022-11-24T06:12:12.547Z,100538.19
2022-11-24T06:14:40.921Z,100546.09
2022-11-24T06:17:09.353Z,100558.47
2022-11-24T06:19:41.695Z,100561.09
2022-11-24T06:22:11.347Z,100561.91
2022-11-24T06:24:39.071Z,100568.22
2022-11-24T06:27:06.798Z,100567.44
2022-11-24T06:29:34.529Z,100576.41
2022-11-24T06:32:02.327Z,100587.72
2022-11-24T06:34:30.100Z,100587.72
2022-11-24T06:36:57.805Z,100599.59
2022-11-24T06:39:26.968Z,100595.38
2022-11-24T06:41:54.716Z,100605.13
2022-11-24T06:44:22.644Z,100615.94
2022-11-24T06:46:50.488Z,100615.94
2022-11-24T06:49:18.252Z,100632.03
2022-11-24T06:51:45.960Z,100628.88
2022-11-24T06:54:16.588Z,100632.53
2022-11-24T06:56:45.686Z,100646.00
2022-11-24T06:59:18.535Z,100632.56
2022-11-24T07:01:46.923Z,100648.38
2022-11-24T07:04:14.958Z,100646.00
2022-11-24T07:06:42.987Z,100655.22
2022-11-24T07:09:12.159Z,100663.94
2022-11-24T07:11:40.922Z,100665.25
2022-11-24T07:14:10.275Z,100667.09
2022-11-24T07:16:38.020Z,100675.00
2022-11-24T07:19:05.860Z,100668.13
2022-11-24T07:21:33.608Z,100685.53
2022-11-24T07:24:01.279Z,100690.00
2022-11-24T07:26:29.059Z,100689.19
2022-11-24T07:28:56.796Z,100690.00
2022-11-24T07:31:26.140Z,100691.59
2022-11-24T07:33:55.400Z,100681.84
2022-11-24T07:36:23.929Z,100699.72
2022-11-24T07:38:51.927Z,100697.38
2022-11-24T07:41:20.883Z,100707.13
2022-11-24T07:43:49.212Z,100710.53
2022-11-24T07:46:19.015Z,100721.59
2022-11-24T07:48:48.481Z,100730.81
2022-11-24T07:51:16.749Z,100731.88
2022-11-24T07:53:45.176Z,100727.91
2022-11-24T07:56:13.171Z,100733.16
2022-11-24T07:58:40.851Z,100739.00
2022-11-24T08:01:13.170Z,100751.09
2022-11-24T08:03:41.626Z,100764.00
2022-11-24T08:06:31.851Z,100769.78
2022-11-24T08:08:59.830Z,100766.09
2022-11-24T08:11:28.266Z,100773.75
2022-11-24T08:13:56.107Z,100770.84
2022-11-24T08:16:24.130Z,100788.75
2022-11-24T08:18:53.870Z,100785.56
2022-11-24T08:21:24.313Z,100791.09
2022-11-24T08:23:55.755Z,100782.69
2022-11-24T08:26:24.988Z,100783.19
2022-11-24T08:28:56.474Z,100787.13
2022-11-24T08:31:24.937Z,100784.22
2022-11-24T08:33:52.746Z,100796.38
2022-11-24T08:36:22.000Z,100795.03
2022-11-24T08:38:50.024Z,100806.63
2022-11-24T08:41:18.524Z,100804.50
2022-11-24T08:43:46.372Z,100809.25
2022-11-24T08:46:17.257Z,100814.47
2022-11-24T08:48:45.217Z,100815.03
2022-11-24T08:51:15.038Z,100807.88
2022-11-24T08:53:44.530Z,100810.28
2022-11-24T08:56:14.112Z,100825.81
2022-11-24T08:58:42.499Z,100830.28
2022-11-24T09:01:13.224Z,100835.03
2022-11-24T09:03:46.640Z,100837.69
2022-11-24T09:06:18.958Z,100837.44
2022-11-24T09:08:48.560Z,100837.16
2022-11-24T09:11:18.024Z,100845.34
2022-11-24T09:13:46.473Z,100843.47
2022-11-24T09:16:16.439Z,100853.75
2022-11-24T09:18:44.326Z,100852.16
2022-11-24T09:21:14.196Z,100851.88
2022-11-24T09:23:42.687Z,100855.81
2022-11-24T09:26:14.160Z,100859.97
2022-11-24T09:28:42.896Z,100860.19
2022-11-24T09:31:12.907Z,100861.69
2022-11-24T09:33:41.594Z,100865.81
2022-11-24T09:36:10.225Z,100873.66
2022-11-24T09:38:37.997Z,100878.59
2022-11-24T09:41:32.687Z,100881.34
2022-11-24T09:44:09.052Z,100871.16
2022-11-24T09:46:44.461Z,100881.63
2022-11-24T09:49:18.531Z,100880.97
2022-11-24T09:51:50.945Z,100902.50
2022-11-24T09:54:23.960Z,100901.06
2022-11-24T09:56:53.463Z,100901.41
2022-11-24T09:59:26.242Z,100904.47
2022-11-24T10:01:55.820Z,100903.78
2022-11-24T10:04:27.214Z,100904.44
2022-11-24T10:07:05.311Z,100912.84
2022-11-24T10:09:46.255Z,100921.72
2022-11-24T10:12:29.193Z,100910.66
2022-11-24T10:15:16.691Z,100920.44
2022-11-24T10:17:56.944Z,100926.84
2022-11-24T10:20:39.006Z,100920.78
2022-11-24T10:23:22.988Z,100924.41
2022-11-24T10:25:55.896Z,100934.78
2022-11-24T10:28:28.230Z,100938.44
2022-11-24T10:31:14.549Z,100942.75
2022-11-24T10:33:43.743Z,100951.06
2022-11-24T10:36:17.990Z,100944.59
2022-11-24T10:38:54.575Z,100959.44
2022-11-24T10:41:25.780Z,100955.75
2022-11-24T10:43:59.141Z,100962.34
2022-11-24T10:46:28.617Z,100959.34
2022-11-24T10:49:00.164Z,100961.56
2022-11-24T10:51:42.850Z,100973.13
2022-11-24T10:54:17.072Z,100966.81
2022-11-24T10:56:46.883Z,100968.22
2022-11-24T10:59:40.525Z,100973.53
2022-11-24T11:02:29.105Z,100974.81
2022-11-24T11:04:57.139Z,100979.28
2022-11-24T11:07:25.983Z,100974.06
2022-11-24T11:10:19.759Z,100983.13
2022-11-24T11:12:47.736Z,100990.38
2022-11-24T11:15:24.704Z,100989.94
2022-11-24T11:17:57.283Z,100977.97
2022-11-24T11:20:30.013Z,100990.66
2022-11-24T11:22:59.802Z,100977.28
2022-11-24T11:25:32.947Z,100983.03
2022-11-24T11:28:24.900Z,100988.94
2022-11-24T11:31:20.440Z,100988.03
2022-11-24T11:34:08.340Z,100980.03
2022-11-24T11:36:43.174Z,100975.88
2022-11-24T11:39:23.301Z,100976.25
2022-11-24T11:41:52.925Z,100976.88
2022-11-24T11:44:30.979Z,100974.09
2022-11-24T11:47:01.411Z,100972.38
2022-11-24T11:49:29.176Z,100979.75
2022-11-24T11:52:21.560Z,100977.56
2022-11-24T11:55:14.385Z,100981.34
2022-11-24T11:57:51.740Z,100980.31
2022-11-24T12:00:21.896Z,100982.41
2022-11-24T12:03:22.051Z,100976.69
2022-11-24T12:06:00.299Z,100986.63
2022-11-24T12:09:03.205Z,100991.38
2022-11-24T12:11:33.064Z,100986.16
2022-11-24T12:14:21.399Z,100982.78
2022-11-24T12:17:00.944Z,100983.81
2022-11-24T12:19:53.067Z,100980.41
2022-11-24T12:22:33.268Z,100982.78
2022-11-24T12:25:12.988Z,100977.03
2022-11-24T12:27:51.201Z,100989.56
2022-11-24T12:30:20.816Z,100987.78
2022-11-24T12:33:09.632Z,100981.44
2022-11-24T12:35:43.860Z,100981.00
2022-11-24T12:38:23.433Z,100988.13
2022-11-24T12:43:59.102Z,100992.09
2022-11-24T12:46:36.275Z,100994.66
2022-11-24T12:49:16.335Z,100998.47
2022-11-24T12:51:50.064Z,101009.91
2022-11-24T12:54:21.736Z,101006.03
2022-11-24T12:57:01.117Z,101009.50
2022-11-24T12:59:38.049Z,101011.63
2022-11-24T13:02:31.060Z,101011.50
2022-11-24T13:05:09.447Z,101006.13
2022-11-24T13:07:44.086Z,100997.25
2022-11-24T13:11:00.378Z,101000.25
2022-11-24T13:13:36.540Z,101009.28
2022-11-24T13:19:13.506Z,100997.34
2022-11-24T13:21:51.801Z,101004.22
2022-11-24T13:24:26.459Z,100997.50
2022-11-24T13:26:56.173Z,101000.03
2022-11-24T13:29:35.601Z,100995.13
2022-11-24T13:32:52.112Z,100997.66
2022-11-24T13:35:19.963Z,100992.81
2022-11-24T13:37:53.086Z,100998.28
2022-11-24T13:40:54.303Z,101003.03
2022-11-24T13:43:30.149Z,100993.28
2022-11-24T13:45:57.788Z,100996.88
2022-11-24T13:48:40.193Z,100991.53
2022-11-24T13:51:23.158Z,101003.47
2022-11-24T13:53:54.143Z,100997.81
2022-11-24T13:56:27.362Z,100995.25
2022-11-24T13:58:57.125Z,100999.66
2022-11-24T14:01:26.246Z,100999.31
2022-11-24T14:07:06.754Z,100990.34
2022-11-24T14:09:37.963Z,100991.66
2022-11-24T14:12:14.061Z,100989.78
2022-11-24T14:14:42.412Z,100990.56
2022-11-24T14:17:17.521Z,100997.28
2022-11-24T14:19:46.822Z,101001.28
2022-11-24T14:22:18.810Z,100992.63
2022-11-24T14:24:47.233Z,100990.53
2022-11-24T14:27:18.518Z,100990.34
2022-11-24T14:29:57.195Z,100983.19
2022-11-24T14:32:25.121Z,100984.88
2022-11-24T14:34:54.143Z,100979.06
2022-11-24T14:37:21.991Z,100989.72
2022-11-24T14:39:49.681Z,100985.69
2022-11-24T14:42:21.259Z,100987.53
2022-11-24T14:44:55.545Z,100992.38
2022-11-24T14:47:31.353Z,100994.28
2022-11-24T14:50:10.037Z,100994.59
2022-11-24T14:52:45.579Z,100987.69
2022-11-24T14:55:25.832Z,100987.13
2022-11-24T14:57:55.043Z,100986.94
2022-11-24T15:00:31.243Z,100987.03
2022-11-24T15:03:16.166Z,100988.91
2022-11-24T15:05:56.857Z,100982.09
2022-11-24T15:08:26.276Z,100990.44
2022-11-24T15:10:59.039Z,100989.75
2022-11-24T15:13:29.907Z,100995.69
2022-11-24T15:16:02.802Z,100997.59
2022-11-24T15:18:38.494Z,100999.69
2022-11-24T15:21:06.472Z,100994.25
2022-11-24T15:23:35.128Z,100993.41
2022-11-24T15:26:30.234Z,100993.25
2022-11-24T15:29:01.183Z,101005.78
2022-11-24T15:31:28.828Z,101009.56
2022-11-24T15:33:56.476Z,101009.47
2022-11-24T15:36:24.156Z,101003.44
2022-11-24T15:38:52.260Z,101012.03
2022-11-24T15:41:22.126Z,101011.88
2022-11-24T15:43:49.867Z,101010.66
2022-11-24T15:46:18.850Z,101010.75
2022-11-24T15:48:46.805Z,101011.59
2022-11-24T15:51:15.301Z,101006.13
2022-11-24T15:53:46.114Z,101000.66
2022-11-24T15:56:16.924Z,100998.38
2022-11-24T15:58:44.606Z,100996.91
2022-11-24T16:01:12.287Z,100998.09
2022-11-24T16:03:49.184Z,100994.16
2022-11-24T16:06:24.758Z,100998.13
2022-11-24T16:08:53.015Z,101003.97
2022-11-24T16:11:21.397Z,101000.31
2022-11-24T16:13:52.796Z,101001.19
2022-11-24T16:16:22.872Z,101011.28
2022-11-24T16:18:52.069Z,101002.03
2022-11-24T16:21:19.799Z,101005.78
2022-11-24T16:23:48.675Z,101002.06
2022-11-24T16:26:16.427Z,101001.06
2022-11-24T16:28:45.758Z,101005.56
2022-11-24T16:31:15.868Z,101004.56
2022-11-24T16:33:44.698Z,101004.31
2022-11-24T16:36:13.915Z,101012.50
2022-11-24T16:38:41.774Z,101015.44
2022-11-24T16:41:10.534Z,101014.41
2022-11-24T16:43:38.446Z,101017.09
2022-11-24T16:46:19.351Z,101016.28
2022-11-24T16:48:48.341Z,101013.94
2022-11-24T16:51:18.554Z,101015.25
2022-11-24T16:53:46.272Z,101009.72
2022-11-24T16:56:14.823Z,101007.63
2022-11-24T16:58:42.972Z,100998.66
2022-11-24T17:01:12.499Z,101009.00
2022-11-24T17:03:40.810Z,101005.84
2022-11-24T17:06:10.243Z,101008.22
2022-11-24T17:08:40.878Z,101013.78
2022-11-24T17:11:09.663Z,101008.25
2022-11-24T17:13:37.821Z,101008.81
2022-11-24T17:16:06.247Z,101009.06
2022-11-24T17:18:34.893Z,101001.44
2022-11-24T17:21:09.247Z,101001.44
2022-11-24T17:23:39.039Z,101009.91
2022-11-24T17:26:08.668Z,101008.84
2022-11-24T17:28:36.899Z,101003.84
2022-11-24T17:31:09.455Z,101003.06
2022-11-24T17:33:40.722Z,101014.66
2022-11-24T17:36:09.265Z,101018.59
2022-11-24T17:38:37.273Z,101015.16
2022-11-24T17:41:11.341Z,101009.88
2022-11-24T17:43:39.291Z,101009.38
2022-11-24T17:46:07.400Z,101008.84
2022-11-24T17:48:36.548Z,101006.75
2022-11-24T17:51:05.932Z,101008.34
2022-11-24T17:53:33.629Z,101018.38
2022-11-24T17:56:02.121Z,101016.28
2022-11-24T17:58:32.584Z,101013.13
2022-11-24T18:01:01.187Z,101011.81
2022-11-24T18:03:31.548Z,101012.84
2022-11-24T18:05:59.242Z,101004.41
2022-11-24T18:08:26.937Z,101007.88
2022-11-24T18:10:54.567Z,101012.63
2022-11-24T18:13:48.924Z,101021.88
2022-11-24T18:16:12.661Z,101009.47
2022-11-24T18:18:41.455Z,101010.78
2022-11-24T18:21:14.928Z,101016.31
2022-11-24T18:23:43.355Z,101021.59
2022-11-24T18:26:14.814Z,101017.09
2022-11-24T18:28:43.169Z,101015.50
2022-11-24T18:31:14.212Z,101017.38
2022-11-24T18:33:43.555Z,101008.94
2022-11-24T18:36:14.221Z,101004.72
2022-11-24T18:38:41.936Z,101003.13
2022-11-24T18:41:10.496Z,100995.47
2022-11-24T18:43:38.551Z,101001.28
2022-11-24T18:46:07.805Z,100999.72
2022-11-24T18:48:36.964Z,100996.28
2022-11-24T18:51:05.110Z,101003.94
2022-11-24T18:53:32.649Z,100996.28
2022-11-24T18:56:02.167Z,100999.47
2022-11-24T18:58:31.156Z,100999.75
2022-11-24T19:01:08.065Z,100996.59
2022-11-24T19:03:44.995Z,101001.06
2022-11-24T19:06:17.645Z,100995.00
2022-11-24T19:08:45.808Z,100995.25
2022-11-24T19:11:17.260Z,100995.28
2022-11-24T19:13:44.991Z,100986.56
2022-11-24T19:16:13.166Z,100993.16
2022-11-24T19:18:42.274Z,100991.84
2022-11-24T19:21:10.556Z,100988.97
2022-11-24T19:23:38.371Z,100987.66
2022-11-24T19:26:06.885Z,100982.13
2022-11-24T19:28:34.800Z,100978.94
2022-11-24T19:31:03.027Z,100972.09
2022-11-24T19:33:31.529Z,100974.47
2022-11-24T19:36:06.092Z,100965.22
2022-11-24T19:38:35.597Z,100976.59
2022-11-24T19:41:04.769Z,100964.72
2022-11-24T19:43:33.150Z,100963.13
2022-11-24T19:46:02.200Z,100965.22
2022-11-24T19:48:34.129Z,100970.78
2022-11-24T19:51:04.765Z,100979.72
2022-11-24T19:53:32.719Z,100985.53
2022-11-24T19:56:04.541Z,100980.50
2022-11-24T19:58:32.827Z,100984.75
2022-11-24T20:01:07.040Z,100990.53
2022-11-24T20:03:35.033Z,100983.44
2022-11-24T20:06:04.579Z,100980.00
2022-11-24T20:08:33.986Z,100990.53
2022-11-24T20:11:05.720Z,100986.88
2022-11-24T20:13:35.012Z,100989.78
2022-11-24T20:16:09.095Z,100985.81
2022-11-24T20:18:41.998Z,100982.38
2022-11-24T20:21:13.732Z,100980.78
2022-11-24T20:23:42.072Z,100984.50
2022-11-24T20:26:12.198Z,100979.47
2022-11-24T20:28:40.222Z,100976.84
2022-11-24T20:31:10.324Z,100976.06
2022-11-24T20:33:38.726Z,100967.38
2022-11-24T20:36:08.626Z,100973.44
2022-11-24T20:38:38.452Z,100982.91
2022-11-24T20:41:09.397Z,100968.94
2022-11-24T20:43:37.366Z,100979.22
2022-11-24T20:46:06.032Z,100969.47
2022-11-24T20:48:38.831Z,100977.91
2022-11-24T20:51:11.584Z,100967.38
2022-11-24T20:53:41.593Z,100959.19
2022-11-24T20:56:11.065Z,100972.63
2022-11-24T20:58:39.533Z,100976.03
2022-11-24T21:01:08.436Z,100976.31
2022-11-24T21:03:41.388Z,100964.69
2022-11-24T21:06:11.762Z,100962.56
2022-11-24T21:08:42.016Z,100965.22
2022-11-24T21:11:12.368Z,100972.34
2022-11-24T21:13:41.629Z,100972.59
2022-11-24T21:16:13.752Z,100983.16
2022-11-24T21:18:41.741Z,100966.28
2022-11-24T21:21:09.536Z,100968.66
2022-11-24T21:23:37.474Z,100971.03
2022-11-24T21:26:13.154Z,100974.44
2022-11-24T21:28:44.847Z,100955.75
2022-11-24T21:31:14.678Z,100959.97
2022-11-24T21:33:43.266Z,100969.47
2022-11-24T21:36:11.352Z,100969.47
2022-11-24T21:38:39.018Z,100958.91
2022-11-24T21:41:09.376Z,100950.19
2022-11-24T21:43:37.337Z,100952.84
2022-11-24T21:46:06.774Z,100949.41
2022-11-24T21:48:35.683Z,100950.47
2022-11-24T21:51:05.023Z,100953.34
2022-11-24T21:53:34.313Z,100938.59
2022-11-24T21:56:03.515Z,100939.63
2022-11-24T21:58:32.873Z,100934.63
2022-11-24T22:01:02.902Z,100935.44
2022-11-24T22:03:30.957Z,100940.69
2022-11-24T22:06:00.071Z,100934.09
2022-11-24T22:08:29.156Z,100929.59
2022-11-24T22:11:01.643Z,100932.50
2022-11-24T22:13:29.749Z,100927.78
2022-11-24T22:16:05.928Z,100925.16
2022-11-24T22:18:35.073Z,100923.31
2022-11-24T22:21:03.745Z,100920.66
2022-11-24T22:23:31.812Z,100924.91
2022-11-24T22:26:03.930Z,100919.34
2022-11-24T22:28:32.996Z,100923.81
2022-11-24T22:31:06.076Z,100927.53
2022-11-24T22:33:33.875Z,100926.75
2022-11-24T22:36:02.348Z,100932.03
2022-11-24T22:38:31.372Z,100923.03
2022-11-24T22:41:02.987Z,100921.19
2022-11-24T22:43:32.594Z,100926.19
2022-11-24T22:46:05.751Z,100918.81
2022-11-24T22:48:33.890Z,100926.19
2022-11-24T22:51:03.231Z,100926.19
2022-11-24T22:53:30.955Z,100922.78
2022-11-24T22:56:02.256Z,100925.66
2022-11-24T22:58:30.352Z,100925.66
2022-11-24T23:00:58.020Z,100928.06
2022-11-24T23:03:27.156Z,100934.38
2022-11-24T23:05:54.869Z,100929.09
2022-11-24T23:08:22.633Z,100927.53
2022-11-24T23:10:50.246Z,100928.81
2022-11-24T23:13:17.896Z,100926.44
2022-11-24T23:15:45.541Z,100930.91
2022-11-24T23:18:13.823Z,100928.28
2022-11-24T23:20:42.775Z,100924.88
2022-11-24T23:23:10.436Z,100919.88
2022-11-24T23:25:38.051Z,100924.31
2022-11-24T23:28:06.041Z,100927.53
2022-11-24T23:30:33.728Z,100916.19
2022-11-24T23:33:01.376Z,100910.91
2022-11-24T23:35:28.996Z,100911.97
2022-11-24T23:38:07.554Z,100910.91
2022-11-24T23:40:35.692Z,100907.72
2022-11-24T23:43:03.337Z,100904.84
2022-11-24T23:45:31.017Z,100904.53
2022-11-24T23:47:58.684Z,100907.97
2022-11-24T23:50:26.383Z,100907.97
2022-11-24T23:52:54.404Z,100906.66
2022-11-24T23:55:23.409Z,100906.16
2022-11-24T23:57:51.065Z,100915.91
